Time;durP1;ratioP1;P1;durP2;ratioP2;P2;SDS_P1;SDS_P2;PMS_P1;PMS_P2;Temp;Humidity;BMP_temperature;BMP_pressure;BME280_temperature;BME280_humidity;BME280_pressure;Samples;Min_cycle;Max_cycle;Signal;HPM_P1;HPM_P2
2021/10/04 00:01:52;;;;;;;4.50;3.13;;;11.40;99.90;;;;;;4112054;28;20038;-73
2021/10/04 00:03:53;;;;;;;12.15;3.72;;;11.50;99.90;;;;;;4130315;28;20034;-73
2021/10/04 00:05:54;;;;;;;5.43;3.15;;;11.50;99.90;;;;;;4117435;28;20046;-74
2021/10/04 00:07:55;;;;;;;6.30;3.47;;;11.40;99.90;;;;;;4131319;28;20120;-73
2021/10/04 00:09:56;;;;;;;10.15;3.35;;;11.30;99.90;;;;;;4113189;28;20070;-73
2021/10/04 00:11:56;;;;;;;9.45;3.30;;;11.30;99.90;;;;;;4099028;28;20043;-74
2021/10/04 00:13:57;;;;;;;8.23;3.95;;;11.20;99.90;;;;;;4114292;28;20087;-73
2021/10/04 00:15:58;;;;;;;8.60;4.18;;;11.20;99.90;;;;;;4102267;28;20070;-73
2021/10/04 00:18:00;;;;;;;6.53;2.60;;;11.10;99.90;;;;;;4110498;28;20046;-74
2021/10/04 00:20:01;;;;;;;6.05;3.30;;;11.10;99.90;;;;;;4112296;28;20055;-73
2021/10/04 00:22:03;;;;;;;5.20;3.08;;;11.10;99.90;;;;;;4113588;28;20379;-73
2021/10/04 00:24:04;;;;;;;5.80;3.07;;;11.20;99.90;;;;;;4097539;28;20031;-74
2021/10/04 00:26:05;;;;;;;5.18;3.20;;;11.30;99.90;;;;;;4116963;28;20126;-76
2021/10/04 00:28:06;;;;;;;8.02;3.78;;;11.20;99.90;;;;;;4130372;28;20097;-75
2021/10/04 00:30:09;;;;;;;6.60;3.60;;;11.20;99.90;;;;;;4113185;28;20042;-74
2021/10/04 00:32:10;;;;;;;5.38;3.50;;;11.20;99.90;;;;;;4115481;28;20061;-74
2021/10/04 00:34:10;;;;;;;6.35;3.78;;;11.20;99.90;;;;;;4126060;28;20042;-74
2021/10/04 00:36:11;;;;;;;8.30;3.38;;;11.40;99.90;;;;;;4114777;28;20034;-74
2021/10/04 00:38:12;;;;;;;12.85;3.78;;;11.40;99.90;;;;;;4114006;28;20054;-74
2021/10/04 00:40:21;;;;;;;8.07;3.30;;;11.30;99.90;;;;;;4114759;28;20099;-73
2021/10/04 00:42:22;;;;;;;9.68;3.03;;;11.30;99.90;;;;;;4113153;28;20038;-75
2021/10/04 00:44:23;;;;;;;5.03;3.10;;;11.30;99.90;;;;;;4127681;28;20035;-74
2021/10/04 00:46:26;;;;;;;6.25;3.15;;;11.30;99.90;;;;;;4112295;28;20096;-74
2021/10/04 00:48:27;;;;;;;5.68;2.80;;;11.30;99.90;;;;;;4115707;28;20030;-74
2021/10/04 00:50:29;;;;;;;5.57;2.60;;;11.30;99.90;;;;;;4099075;28;20054;-75
2021/10/04 00:52:30;;;;;;;3.83;2.78;;;11.30;99.90;;;;;;4125445;28;20051;-74
2021/10/04 00:54:31;;;;;;;6.68;3.00;;;11.40;99.90;;;;;;4114626;28;20043;-74
2021/10/04 00:56:32;;;;;;;4.65;2.70;;;11.50;99.90;;;;;;4113061;28;20074;-74
2021/10/04 00:58:33;;;;;;;4.35;2.90;;;11.50;99.90;;;;;;4113762;28;20038;-74
2021/10/04 01:00:34;;;;;;;5.35;3.15;;;11.50;99.90;;;;;;4115644;28;20517;-74
2021/10/04 01:02:34;;;;;;;6.60;3.53;;;11.40;99.90;;;;;;4130115;28;20026;-74
2021/10/04 01:04:35;;;;;;;4.47;2.80;;;11.40;99.90;;;;;;4112091;28;20028;-74
2021/10/04 01:06:36;;;;;;;5.70;2.75;;;11.30;99.90;;;;;;4114857;28;20042;-75
2021/10/04 01:08:36;;;;;;;5.10;2.97;;;11.30;99.90;;;;;;4114720;28;20038;-74
2021/10/04 01:10:37;;;;;;;4.22;3.10;;;11.20;99.90;;;;;;4115767;28;20077;-74
2021/10/04 01:12:40;;;;;;;4.93;3.00;;;11.30;99.90;;;;;;4112662;28;20509;-76
2021/10/04 01:14:41;;;;;;;7.00;2.95;;;11.40;99.90;;;;;;4113982;28;20633;-76
2021/10/04 01:16:43;;;;;;;5.15;3.55;;;11.40;99.90;;;;;;4097353;28;20126;-75
2021/10/04 01:18:44;;;;;;;9.05;3.50;;;11.30;99.90;;;;;;4129071;28;20233;-76
2021/10/04 01:20:45;;;;;;;6.38;3.97;;;11.20;99.90;;;;;;4115031;28;20427;-76
2021/10/04 01:22:47;;;;;;;6.70;3.45;;;11.10;99.90;;;;;;4098213;28;20134;-74
2021/10/04 01:24:48;;;;;;;5.20;3.67;;;11.10;99.90;;;;;;4114552;28;20046;-74
2021/10/04 01:26:49;;;;;;;8.65;3.83;;;11.10;99.90;;;;;;4116447;28;20074;-74
2021/10/04 01:28:51;;;;;;;3.72;2.80;;;11.10;99.90;;;;;;4113672;28;20482;-74
2021/10/04 01:30:51;;;;;;;7.57;3.10;;;11.00;99.90;;;;;;4127358;28;20046;-73
2021/10/04 01:32:53;;;;;;;6.40;3.40;;;11.10;99.90;;;;;;4113182;28;20463;-74
2021/10/04 01:34:56;;;;;;;7.18;3.20;;;11.00;99.90;;;;;;4110657;28;20054;-74
2021/10/04 01:36:57;;;;;;;3.50;3.00;;;11.00;99.90;;;;;;4099025;28;20039;-74
2021/10/04 01:38:58;;;;;;;12.65;3.15;;;11.00;99.90;;;;;;4124108;28;20042;-74
2021/10/04 01:40:59;;;;;;;11.32;3.22;;;11.00;99.90;;;;;;4113610;28;20035;-75
2021/10/04 01:43:00;;;;;;;6.60;2.88;;;11.10;99.90;;;;;;4123646;28;20038;-74
2021/10/04 01:45:04;;;;;;;7.40;3.20;;;11.00;99.90;;;;;;4137167;28;20116;-74
2021/10/04 01:47:05;;;;;;;7.13;3.40;;;11.00;99.90;;;;;;4110100;28;20109;-74
2021/10/04 01:49:07;;;;;;;4.80;2.95;;;10.90;99.90;;;;;;4114162;28;20055;-74
2021/10/04 01:51:08;;;;;;;9.68;3.45;;;10.80;99.90;;;;;;4110563;28;20039;-75
2021/10/04 01:53:09;;;;;;;9.18;4.03;;;10.80;99.90;;;;;;4101191;28;20082;-75
2021/10/04 01:55:11;;;;;;;5.80;3.55;;;10.70;99.90;;;;;;4098667;28;20143;-75
2021/10/04 01:57:12;;;;;;;8.98;4.65;;;10.70;99.90;;;;;;4110293;28;22159;-74
2021/10/04 01:59:12;;;;;;;6.47;4.40;;;10.60;99.90;;;;;;4110054;28;20043;-75
2021/10/04 02:01:13;;;;;;;7.70;4.30;;;10.60;99.90;;;;;;4112576;28;20063;-74
2021/10/04 02:03:14;;;;;;;6.72;3.72;;;10.50;99.90;;;;;;4115025;28;20023;-75
2021/10/04 02:05:16;;;;;;;9.20;4.05;;;10.60;99.90;;;;;;4113648;28;20031;-74
2021/10/04 02:07:17;;;;;;;9.05;3.67;;;10.70;99.90;;;;;;4112835;28;20031;-75
2021/10/04 02:09:19;;;;;;;7.78;3.80;;;10.70;99.90;;;;;;4114011;28;20482;-75
2021/10/04 02:11:20;;;;;;;10.40;4.38;;;10.70;99.90;;;;;;4123124;28;20421;-75
2021/10/04 02:13:21;;;;;;;8.00;4.47;;;10.60;99.90;;;;;;4113177;28;20122;-75
2021/10/04 02:15:23;;;;;;;11.27;3.85;;;10.60;99.90;;;;;;4126191;28;20038;-75
2021/10/04 02:17:26;;;;;;;6.53;3.85;;;10.60;99.90;;;;;;4114287;28;20042;-74
2021/10/04 02:19:26;;;;;;;11.30;4.60;;;10.60;99.90;;;;;;4127607;28;20486;-75
2021/10/04 02:21:27;;;;;;;8.85;4.45;;;10.50;99.90;;;;;;4125859;28;20042;-74
2021/10/04 02:23:28;;;;;;;10.40;3.45;;;10.40;99.90;;;;;;4113367;28;20042;-75
2021/10/04 02:25:29;;;;;;;6.38;3.63;;;10.40;99.90;;;;;;4109302;28;20489;-74
2021/10/04 02:27:30;;;;;;;5.60;3.55;;;10.30;99.90;;;;;;4083029;28;20067;-75
2021/10/04 02:29:31;;;;;;;5.60;3.95;;;10.20;99.90;;;;;;4126436;28;20107;-75
2021/10/04 02:31:31;;;;;;;7.28;4.53;;;10.30;99.90;;;;;;4114020;28;20078;-75
2021/10/04 02:33:32;;;;;;;7.75;4.28;;;10.40;99.90;;;;;;4113514;28;20129;-75
2021/10/04 02:35:33;;;;;;;6.07;3.95;;;10.30;99.90;;;;;;4112956;28;20089;-75
2021/10/04 02:37:34;;;;;;;8.57;4.60;;;10.30;99.90;;;;;;4113059;28;20482;-75
2021/10/04 02:39:35;;;;;;;7.95;4.30;;;10.20;99.90;;;;;;4112448;28;20125;-75
2021/10/04 02:41:35;;;;;;;7.63;4.70;;;10.20;99.90;;;;;;4109150;28;20050;-75
2021/10/04 02:43:36;;;;;;;6.25;4.07;;;10.10;99.90;;;;;;4115159;28;20047;-75
2021/10/04 02:45:37;;;;;;;8.82;4.30;;;10.00;99.90;;;;;;4125288;28;20490;-75
2021/10/04 02:47:39;;;;;;;13.85;4.95;;;10.10;99.90;;;;;;4095395;28;20047;-74
2021/10/04 02:49:40;;;;;;;5.80;4.20;;;9.90;99.90;;;;;;4113509;28;20046;-74
2021/10/04 02:51:41;;;;;;;8.07;4.15;;;9.80;99.90;;;;;;4113123;28;20085;-75
2021/10/04 02:53:42;;;;;;;13.25;4.57;;;9.90;99.90;;;;;;4113396;28;20047;-73
2021/10/04 02:55:43;;;;;;;9.40;4.93;;;9.90;99.90;;;;;;4114748;28;20049;-74
2021/10/04 02:57:44;;;;;;;7.15;4.05;;;10.00;99.90;;;;;;4112253;28;20115;-74
2021/10/04 02:59:45;;;;;;;8.05;4.50;;;10.00;99.90;;;;;;4112883;28;20062;-74
2021/10/04 03:01:46;;;;;;;10.43;5.57;;;10.00;99.90;;;;;;4111914;28;20030;-74
2021/10/04 03:03:47;;;;;;;18.77;6.15;;;9.90;99.90;;;;;;4117434;28;20523;-75
2021/10/04 03:05:48;;;;;;;5.05;4.50;;;9.90;99.90;;;;;;4131638;28;20503;-75
2021/10/04 03:07:49;;;;;;;8.65;5.22;;;9.90;99.90;;;;;;4115740;28;20041;-74
2021/10/04 03:09:49;;;;;;;8.18;4.35;;;10.00;99.90;;;;;;4114606;28;20121;-75
2021/10/04 03:11:50;;;;;;;8.02;4.43;;;10.00;99.90;;;;;;4100351;28;20031;-74
2021/10/04 03:13:51;;;;;;;9.30;4.80;;;10.00;99.90;;;;;;4131007;28;20092;-75
2021/10/04 03:15:51;;;;;;;10.57;4.63;;;10.10;99.90;;;;;;4115280;28;20055;-74
2021/10/04 03:17:52;;;;;;;7.70;4.35;;;10.10;99.90;;;;;;4112320;28;20031;-74
2021/10/04 03:19:53;;;;;;;9.35;4.45;;;10.10;99.90;;;;;;4099094;28;20043;-75
2021/10/04 03:21:54;;;;;;;13.32;5.47;;;10.10;99.90;;;;;;4131978;28;20034;-75
2021/10/04 03:23:55;;;;;;;8.05;5.07;;;10.00;99.90;;;;;;4116894;28;20050;-74
2021/10/04 03:25:55;;;;;;;9.20;4.50;;;10.10;99.90;;;;;;4131658;28;20069;-74
2021/10/04 03:27:56;;;;;;;8.65;4.82;;;10.10;99.90;;;;;;4116621;28;20039;-74
2021/10/04 03:29:57;;;;;;;6.03;4.40;;;10.10;99.90;;;;;;4117021;28;20061;-74
2021/10/04 03:31:58;;;;;;;8.35;4.45;;;10.10;99.90;;;;;;4114160;28;20059;-74
2021/10/04 03:33:59;;;;;;;9.70;4.65;;;10.00;99.90;;;;;;4103749;28;20062;-74
2021/10/04 03:36:00;;;;;;;9.38;5.55;;;10.00;99.90;;;;;;4117160;28;20043;-74
2021/10/04 03:38:01;;;;;;;10.32;4.80;;;10.00;99.90;;;;;;4114909;28;20404;-74
2021/10/04 03:40:04;;;;;;;10.25;4.60;;;10.00;99.90;;;;;;4116796;28;20093;-74
2021/10/04 03:42:05;;;;;;;;;;;10.00;99.90;;;;;;4118562;28;20035;-74
2021/10/04 03:44:06;;;;;;;6.43;4.60;;;10.10;99.90;;;;;;4116532;28;19924;-74
2021/10/04 03:46:07;;;;;;;8.57;4.47;;;;;;;;;;4115545;28;20041;-74
2021/10/04 03:48:08;;;;;;;7.85;4.32;;;10.00;99.90;;;;;;4111736;28;20092;-74
2021/10/04 03:50:11;;;;;;;8.60;5.13;;;9.90;99.90;;;;;;4113363;28;20043;-74
2021/10/04 03:52:12;;;;;;;21.65;5.55;;;9.90;99.90;;;;;;4114935;28;20030;-74
2021/10/04 03:54:13;;;;;;;11.88;5.22;;;9.90;99.90;;;;;;4115375;28;20538;-74
2021/10/04 03:56:14;;;;;;;9.65;5.38;;;9.80;99.90;;;;;;4115264;28;20502;-74
2021/10/04 03:58:15;;;;;;;8.45;4.60;;;9.80;99.90;;;;;;4121695;28;20077;-74
2021/10/04 04:00:20;;;;;;;7.13;5.07;;;9.80;99.90;;;;;;4112126;28;20138;-74
2021/10/04 04:02:21;;;;;;;11.75;5.55;;;9.80;99.90;;;;;;4097865;28;20049;-74
2021/10/04 04:04:22;;;;;;;16.42;5.72;;;9.70;99.90;;;;;;4112498;28;20078;-74
2021/10/04 04:06:22;;;;;;;8.20;4.90;;;9.70;99.90;;;;;;4114463;28;20161;-74
2021/10/04 04:08:23;;;;;;;9.32;5.25;;;9.60;99.90;;;;;;4115908;28;20520;-74
2021/10/04 04:10:24;;;;;;;8.27;4.88;;;9.60;99.90;;;;;;4113260;28;20038;-74
2021/10/04 04:12:25;;;;;;;9.38;6.28;;;9.60;99.90;;;;;;4114378;28;20026;-74
2021/10/04 04:14:26;;;;;;;8.43;6.15;;;9.70;99.90;;;;;;4114002;28;20126;-74
2021/10/04 04:16:27;;;;;;;15.82;5.82;;;9.70;99.90;;;;;;4113606;28;20069;-74
2021/10/04 04:18:28;;;;;;;8.23;4.70;;;9.80;99.90;;;;;;4115214;28;20398;-75
2021/10/04 04:20:28;;;;;;;9.13;4.68;;;9.80;99.90;;;;;;4112212;28;20039;-74
2021/10/04 04:22:29;;;;;;;8.98;5.45;;;9.90;99.90;;;;;;4114198;28;20074;-75
2021/10/04 04:24:30;;;;;;;9.88;4.45;;;10.00;99.90;;;;;;4112856;28;20125;-75
2021/10/04 04:26:32;;;;;;;7.22;4.80;;;10.20;99.90;;;;;;4098414;28;20035;-75
2021/10/04 04:28:33;;;;;;;6.30;3.85;;;10.30;99.90;;;;;;4115043;28;20145;-75
2021/10/04 04:30:34;;;;;;;14.25;4.30;;;10.30;99.90;;;;;;4114060;28;20039;-75
2021/10/04 04:32:35;;;;;;;9.65;4.78;;;10.40;99.90;;;;;;4114154;28;20135;-74
2021/10/04 04:34:37;;;;;;;8.90;3.90;;;10.50;99.90;;;;;;4112281;28;20038;-75
2021/10/04 04:36:39;;;;;;;8.48;4.63;;;10.50;99.90;;;;;;4130196;28;20077;-75
2021/10/04 04:38:40;;;;;;;9.40;4.35;;;10.50;99.90;;;;;;4103574;28;20063;-75
2021/10/04 04:40:41;;;;;;;8.80;4.30;;;10.50;99.90;;;;;;4108510;28;20045;-75
2021/10/04 04:42:43;;;;;;;11.80;4.00;;;10.50;99.90;;;;;;4112588;28;20035;-75
2021/10/04 04:44:44;;;;;;;8.63;4.27;;;10.60;99.90;;;;;;4099989;28;20062;-75
2021/10/04 04:46:45;;;;;;;7.47;4.00;;;10.60;99.90;;;;;;4113152;28;20430;-75
2021/10/04 04:48:46;;;;;;;10.13;4.18;;;10.50;99.90;;;;;;4088993;28;1049635;-75
2021/10/04 04:50:46;;;;;;;9.32;4.25;;;10.50;99.90;;;;;;4113459;28;20130;-75
2021/10/04 04:52:48;;;;;;;10.63;4.18;;;10.50;99.90;;;;;;4127088;28;20038;-75
2021/10/04 04:54:48;;;;;;;12.90;3.80;;;10.50;99.90;;;;;;4110967;28;20058;-75
2021/10/04 04:56:50;;;;;;;8.57;3.75;;;10.50;99.90;;;;;;4114020;28;20046;-75
2021/10/04 04:58:50;;;;;;;9.23;4.72;;;10.40;99.90;;;;;;4124048;28;20447;-75
2021/10/04 05:00:51;;;;;;;9.73;4.63;;;10.40;99.90;;;;;;4114322;28;20072;-75
2021/10/04 05:02:52;;;;;;;6.38;4.10;;;10.40;99.90;;;;;;4111771;28;20105;-75
2021/10/04 05:04:52;;;;;;;8.70;4.55;;;10.40;99.90;;;;;;4114470;28;20050;-75
2021/10/04 05:06:53;;;;;;;7.38;3.78;;;10.50;99.90;;;;;;4112860;28;20035;-75
2021/10/04 05:08:54;;;;;;;9.55;3.78;;;10.50;99.90;;;;;;4110121;28;20090;-75
2021/10/04 05:10:55;;;;;;;6.32;4.15;;;10.40;99.90;;;;;;4105579;28;20122;-75
2021/10/04 05:12:56;;;;;;;7.18;4.93;;;10.50;99.90;;;;;;4126338;28;20042;-75
2021/10/04 05:14:57;;;;;;;6.03;3.60;;;10.60;99.90;;;;;;4093826;28;20035;-76
2021/10/04 05:16:58;;;;;;;7.60;3.72;;;10.60;99.90;;;;;;4114552;28;20038;-76
2021/10/04 05:18:59;;;;;;;9.65;4.28;;;10.70;99.90;;;;;;4127921;28;20054;-76
2021/10/04 05:20:59;;;;;;;10.80;4.05;;;10.60;99.90;;;;;;4098285;28;20173;-76
2021/10/04 05:23:00;;;;;;;9.98;3.95;;;10.60;99.90;;;;;;4110906;28;20355;-76
2021/10/04 05:25:04;;;;;;;7.03;4.05;;;10.70;99.90;;;;;;4126462;28;20521;-75
2021/10/04 05:27:05;;;;;;;7.80;3.90;;;10.80;99.90;;;;;;4114978;28;20038;-77
2021/10/04 05:29:06;;;;;;;7.25;3.70;;;10.80;99.90;;;;;;4109890;28;20042;-75
2021/10/04 05:31:06;;;;;;;8.88;4.10;;;10.80;99.90;;;;;;4094196;28;20035;-75
2021/10/04 05:33:08;;;;;;;11.50;4.88;;;10.80;99.90;;;;;;4111501;28;20397;-75
2021/10/04 05:35:11;;;;;;;11.77;4.32;;;10.70;99.90;;;;;;4112390;28;20106;-75
2021/10/04 05:37:12;;;;;;;9.70;4.53;;;10.80;99.90;;;;;;4113389;28;20031;-75
2021/10/04 05:39:12;;;;;;;13.60;5.00;;;10.80;99.90;;;;;;4116048;28;20092;-75
2021/10/04 05:41:14;;;;;;;10.95;3.80;;;10.70;99.90;;;;;;4111142;28;20085;-75
2021/10/04 05:43:15;;;;;;;7.60;3.90;;;10.80;99.90;;;;;;4113946;28;20031;-75
2021/10/04 05:45:16;;;;;;;6.43;3.65;;;10.80;99.90;;;;;;4112534;28;20573;-75
2021/10/04 05:47:17;;;;;;;7.68;3.53;;;10.90;99.90;;;;;;4111941;28;20041;-75
2021/10/04 05:49:18;;;;;;;8.93;3.55;;;10.90;99.90;;;;;;4113661;28;20051;-75
2021/10/04 05:51:20;;;;;;;8.82;3.78;;;10.90;99.90;;;;;;4105603;28;20479;-75
2021/10/04 05:53:21;;;;;;;9.85;3.17;;;10.90;99.90;;;;;;4113843;28;20039;-75
2021/10/04 05:55:22;;;;;;;8.88;3.53;;;10.80;99.90;;;;;;4123277;28;20069;-75
2021/10/04 05:57:23;;;;;;;3.85;3.50;;;10.80;99.90;;;;;;4112225;28;20058;-75
2021/10/04 05:59:24;;;;;;;8.00;3.67;;;10.80;99.90;;;;;;4104818;28;20047;-75
2021/10/04 06:01:24;;;;;;;7.80;3.65;;;10.70;99.90;;;;;;4112632;28;20043;-75
2021/10/04 06:03:25;;;;;;;8.30;4.07;;;10.80;99.90;;;;;;4109864;28;20121;-75
2021/10/04 06:05:26;;;;;;;4.20;3.25;;;10.70;99.90;;;;;;4113631;28;20042;-75
2021/10/04 06:07:27;;;;;;;8.38;3.58;;;10.70;99.90;;;;;;4112911;28;20149;-75
2021/10/04 06:09:28;;;;;;;9.15;3.95;;;10.70;99.90;;;;;;4111845;28;20243;-75
2021/10/04 06:11:29;;;;;;;13.25;3.65;;;10.70;99.90;;;;;;4111479;28;20494;-74
2021/10/04 06:13:30;;;;;;;8.07;4.80;;;10.70;99.90;;;;;;4108477;28;20123;-74
2021/10/04 06:15:30;;;;;;;6.30;3.85;;;10.80;99.90;;;;;;4128349;28;20445;-74
2021/10/04 06:17:32;;;;;;;9.05;3.00;;;10.80;99.90;;;;;;4113460;28;20833;-76
2021/10/04 06:19:32;;;;;;;6.95;3.33;;;10.80;99.90;;;;;;4111937;28;20050;-74
2021/10/04 06:21:34;;;;;;;6.35;3.08;;;10.90;99.90;;;;;;4113291;28;20399;-74
2021/10/04 06:23:35;;;;;;;5.65;4.05;;;11.00;99.90;;;;;;4115656;28;20043;-75
2021/10/04 06:25:35;;;;;;;11.93;3.75;;;10.90;99.90;;;;;;4104755;28;20414;-76
2021/10/04 06:27:36;;;;;;;9.80;3.78;;;10.90;99.90;;;;;;4112456;28;20039;-75
2021/10/04 06:29:37;;;;;;;5.70;3.55;;;10.90;99.90;;;;;;4112156;28;20287;-75
2021/10/04 06:31:39;;;;;;;8.25;3.58;;;10.80;99.90;;;;;;4112068;28;20031;-76
2021/10/04 06:33:39;;;;;;;9.18;3.40;;;10.90;99.90;;;;;;4124080;28;20041;-76
2021/10/04 06:35:40;;;;;;;4.15;2.80;;;11.00;99.90;;;;;;4113376;28;20042;-75
2021/10/04 06:37:41;;;;;;;8.20;3.88;;;11.10;99.90;;;;;;4114034;28;20039;-75
2021/10/04 06:39:42;;;;;;;17.40;4.18;;;11.10;99.90;;;;;;4095902;28;20122;-76
2021/10/04 06:41:42;;;;;;;12.82;4.30;;;11.10;99.90;;;;;;4127010;28;20039;-75
2021/10/04 06:43:43;;;;;;;6.22;4.13;;;11.10;99.90;;;;;;4098754;28;20036;-75
2021/10/04 06:45:44;;;;;;;10.40;4.80;;;11.10;99.90;;;;;;4113079;28;20062;-76
2021/10/04 06:47:45;;;;;;;5.03;3.35;;;11.20;99.90;;;;;;4125525;28;20059;-75
2021/10/04 06:49:46;;;;;;;8.55;3.40;;;11.20;99.90;;;;;;4116347;28;20046;-75
2021/10/04 06:51:46;;;;;;;7.25;3.85;;;11.20;99.90;;;;;;4127329;28;20541;-75
2021/10/04 06:53:47;;;;;;;4.03;2.78;;;11.30;99.90;;;;;;4110678;28;20398;-75
2021/10/04 06:55:48;;;;;;;9.45;3.78;;;11.30;99.90;;;;;;4112676;28;20123;-75
2021/10/04 06:57:49;;;;;;;6.78;3.63;;;11.30;99.90;;;;;;4125936;28;20089;-76
2021/10/04 06:59:49;;;;;;;5.60;3.50;;;11.20;99.90;;;;;;4090771;28;20047;-76
2021/10/04 07:01:50;;;;;;;8.18;3.55;;;11.20;99.90;;;;;;4110540;28;20035;-75
2021/10/04 07:03:51;;;;;;;6.50;3.90;;;11.10;99.90;;;;;;4114024;28;20046;-75
2021/10/04 07:05:53;;;;;;;5.47;3.35;;;11.20;99.90;;;;;;4127449;28;20520;-76
2021/10/04 07:07:56;;;;;;;9.35;4.18;;;11.20;99.90;;;;;;4113955;28;20042;-76
2021/10/04 07:09:57;;;;;;;;;;;11.20;99.90;;;;;;4104819;28;20063;-75
2021/10/04 07:11:58;;;;;;;7.03;3.53;;;11.00;99.90;;;;;;4108291;28;20258;-75
2021/10/04 07:13:59;;;;;;;6.15;3.20;;;11.00;99.90;;;;;;4112718;28;20167;-76
2021/10/04 07:16:01;;;;;;;4.35;3.25;;;11.00;99.90;;;;;;4113116;28;20441;-76
2021/10/04 07:18:01;;;;;;;3.75;3.35;;;11.10;99.90;;;;;;4110941;28;20338;-75
2021/10/04 07:20:03;;;;;;;4.68;3.72;;;11.10;99.90;;;;;;4127481;28;20042;-75
2021/10/04 07:22:04;;;;;;;6.88;2.70;;;11.10;99.90;;;;;;4111514;28;20561;-75
2021/10/04 07:24:05;;;;;;;8.48;4.03;;;11.20;99.90;;;;;;4111780;28;20042;-75
2021/10/04 07:26:06;;;;;;;7.43;3.38;;;11.20;99.90;;;;;;4128084;28;20482;-75
2021/10/04 07:28:08;;;;;;;6.50;2.92;;;11.20;99.90;;;;;;4111609;28;20401;-76
2021/10/04 07:30:09;;;;;;;8.38;2.83;;;11.20;99.90;;;;;;4111980;28;20088;-76
2021/10/04 07:32:10;;;;;;;6.50;2.85;;;11.20;99.90;;;;;;4107509;28;20518;-75
2021/10/04 07:34:13;;;;;;;10.45;3.60;;;11.20;99.90;;;;;;4111742;28;20152;-76
2021/10/04 07:36:13;;;;;;;4.57;3.30;;;11.10;99.90;;;;;;4122030;28;20027;-75
2021/10/04 07:38:14;;;;;;;10.30;4.05;;;11.10;99.90;;;;;;4113334;28;20828;-75
2021/10/04 07:40:16;;;;;;;8.60;3.17;;;11.10;99.90;;;;;;4112392;28;20043;-75
2021/10/04 07:42:17;;;;;;;11.02;4.32;;;11.10;99.90;;;;;;4127227;28;20043;-74
2021/10/04 07:44:20;;;;;;;9.23;4.30;;;11.00;99.90;;;;;;4116128;28;20042;-75
2021/10/04 07:46:21;;;;;;;10.00;2.90;;;11.00;99.90;;;;;;4114892;28;21099;-75
2021/10/04 07:48:22;;;;;;;9.95;4.28;;;11.00;99.90;;;;;;4127901;28;20073;-75
2021/10/04 07:50:23;;;;;;;10.13;3.60;;;11.00;99.90;;;;;;4114238;28;20054;-75
2021/10/04 07:52:23;;;;;;;8.10;3.50;;;11.00;99.90;;;;;;4127435;28;20042;-75
2021/10/04 07:54:25;;;;;;;5.80;3.38;;;11.20;99.90;;;;;;4115090;28;20034;-76
2021/10/04 07:56:25;;;;;;;11.20;3.47;;;11.30;99.90;;;;;;4127872;28;20054;-76
2021/10/04 07:58:28;;;;;;;6.32;3.08;;;11.40;99.90;;;;;;4116619;28;20039;-75
2021/10/04 08:00:29;;;;;;;6.28;2.88;;;11.50;99.90;;;;;;4090315;28;20853;-75
2021/10/04 08:02:31;;;;;;;3.17;2.72;;;11.50;99.90;;;;;;4114088;28;20054;-77
2021/10/04 08:04:32;;;;;;;13.57;4.20;;;11.50;99.90;;;;;;4111741;28;20038;-76
2021/10/04 08:06:33;;;;;;;5.68;3.00;;;11.70;99.90;;;;;;4117319;28;20094;-76
2021/10/04 08:08:34;;;;;;;4.13;2.92;;;11.80;99.90;;;;;;4113306;28;20035;-76
2021/10/04 08:10:35;;;;;;;10.02;3.13;;;12.00;99.90;;;;;;4115505;28;20041;-77
2021/10/04 08:12:36;;;;;;;6.38;2.85;;;12.00;99.90;;;;;;4124942;28;20030;-77
2021/10/04 08:14:37;;;;;;;6.28;3.20;;;12.10;99.90;;;;;;4097510;28;20495;-77
2021/10/04 08:16:40;;;;;;;6.70;3.08;;;12.20;99.90;;;;;;4113829;28;20031;-76
2021/10/04 08:18:40;;;;;;;9.53;2.77;;;12.40;99.90;;;;;;4126354;28;20441;-77
2021/10/04 08:20:41;;;;;;;9.35;4.97;;;12.50;99.90;;;;;;4112181;28;20078;-77
2021/10/04 08:22:42;;;;;;;4.32;2.80;;;12.60;99.90;;;;;;4114555;28;20469;-77
2021/10/04 08:24:43;;;;;;;5.00;2.45;;;12.70;99.90;;;;;;4111774;28;20046;-77
2021/10/04 08:26:44;;;;;;;7.13;2.53;;;12.70;99.90;;;;;;4113965;28;20618;-77
2021/10/04 08:28:45;;;;;;;6.38;3.03;;;12.80;99.90;;;;;;4113752;28;20031;-76
2021/10/04 08:30:46;;;;;;;10.73;2.47;;;12.80;99.90;;;;;;4099614;28;20079;-76
2021/10/04 08:32:47;;;;;;;6.03;3.15;;;12.80;99.90;;;;;;4116776;28;20059;-76
2021/10/04 08:34:48;;;;;;;6.38;2.75;;;12.90;99.90;;;;;;4114200;28;20465;-76
2021/10/04 08:36:50;;;;;;;7.15;3.25;;;12.90;99.90;;;;;;4114899;28;20030;-77
2021/10/04 08:38:51;;;;;;;5.85;2.67;;;13.00;99.90;;;;;;4115799;28;20169;-77
2021/10/04 08:40:52;;;;;;;7.93;2.47;;;13.00;99.90;;;;;;4121735;28;20053;-76
2021/10/04 08:42:53;;;;;;;5.95;2.85;;;13.10;99.90;;;;;;4111583;28;20038;-76
2021/10/04 08:44:55;;;;;;;6.78;3.13;;;13.20;99.90;;;;;;4113741;28;20050;-76
2021/10/04 08:46:56;;;;;;;8.27;2.60;;;13.20;99.90;;;;;;4127470;28;20042;-75
2021/10/04 08:48:57;;;;;;;11.65;3.63;;;13.30;99.90;;;;;;4100819;28;20047;-76
2021/10/04 08:50:58;;;;;;;5.18;2.50;;;13.30;99.90;;;;;;4098142;28;20695;-77
2021/10/04 08:53:01;;;;;;;9.35;2.90;;;13.40;99.90;;;;;;4113144;28;20047;-76
2021/10/04 08:55:05;;;;;;;4.97;2.90;;;13.50;99.90;;;;;;4112752;28;20030;-77
2021/10/04 08:57:07;;;;;;;10.93;3.40;;;13.60;99.90;;;;;;4129272;28;20426;-76
2021/10/04 08:59:08;;;;;;;7.15;3.53;;;13.70;99.90;;;;;;4129518;28;20069;-76
2021/10/04 09:01:09;;;;;;;5.13;2.58;;;13.70;99.90;;;;;;4114932;28;20036;-77
2021/10/04 09:03:12;;;;;;;6.03;2.50;;;13.70;99.90;;;;;;4129862;28;20513;-77
2021/10/04 09:05:27;;;;;;;6.10;2.90;;;13.80;99.90;;;;;;4113617;28;20066;-77
2021/10/04 09:07:44;;;;;;;7.68;2.92;;;13.90;99.90;;;;;;4124607;28;20057;-76
2021/10/04 09:09:53;;;;;;;8.18;2.88;;;14.00;99.90;;;;;;4125804;28;20530;-77
2021/10/04 09:11:54;;;;;;;7.50;3.10;;;14.10;99.90;;;;;;4098923;28;20110;-78
2021/10/04 09:13:59;;;;;;;7.03;3.10;;;14.10;99.90;;;;;;4129429;28;20042;-77
2021/10/04 09:16:00;;;;;;;4.90;2.65;;;14.20;99.90;;;;;;4115473;28;20043;-76
2021/10/04 09:18:25;;;;;;;6.75;2.80;;;14.20;99.90;;;;;;4113272;28;20105;-76
2021/10/04 09:20:46;;;;;;;9.07;2.67;;;;;;;;;;4115602;28;20043;-76
2021/10/04 09:22:47;;;;;;;8.10;2.78;;;14.30;99.90;;;;;;4110928;28;20035;-76
2021/10/04 09:24:48;;;;;;;13.05;4.07;;;14.50;99.90;;;;;;4110385;28;20488;-77
2021/10/04 09:26:49;;;;;;;8.55;3.10;;;14.70;99.90;;;;;;4104734;28;20073;-76
2021/10/04 09:29:02;;;;;;;6.63;2.30;;;14.90;99.90;;;;;;4114538;28;20057;-77
2021/10/04 09:31:17;;;;;;;;;;;15.10;99.90;;;;;;4113520;28;20054;-77
2021/10/04 09:33:18;;;;;;;4.85;2.70;;;15.30;99.90;;;;;;4112316;28;20369;-77
2021/10/04 09:35:21;;;;;;;4.50;2.47;;;15.50;99.90;;;;;;4113701;28;20031;-77
2021/10/04 09:37:26;;;;;;;7.60;2.30;;;15.70;99.90;;;;;;4111988;28;20047;-77
2021/10/04 09:39:39;;;;;;;9.60;3.13;;;15.90;99.90;;;;;;4115089;28;20042;-77
2021/10/04 09:42:08;;;;;;;5.20;2.40;;;16.10;99.90;;;;;;4111637;28;20042;-77
2021/10/04 09:44:09;;;;;;;5.97;2.13;;;16.30;99.90;;;;;;4120591;28;20093;-77
2021/10/04 09:46:09;;;;;;;9.75;2.75;;;16.40;99.90;;;;;;4112629;28;20030;-76
2021/10/04 09:48:13;;;;;;;9.57;2.95;;;16.60;99.90;;;;;;4112266;28;20049;-77
2021/10/04 09:50:24;;;;;;;7.22;2.40;;;16.70;99.90;;;;;;4098754;28;20396;-75
2021/10/04 09:52:46;;;;;;;5.20;2.42;;;16.70;99.90;;;;;;4125573;28;20512;-77
2021/10/04 09:54:47;;;;;;;5.68;2.45;;;16.80;99.90;;;;;;4112153;28;20042;-77
2021/10/04 09:56:48;;;;;;;12.05;3.30;;;16.90;99.90;;;;;;4127318;28;20030;-75
2021/10/04 09:58:49;;;;;;;7.95;2.40;;;17.00;99.90;;;;;;4114433;28;20476;-74
2021/10/04 10:00:53;;;;;;;8.82;2.83;;;17.00;99.90;;;;;;4103875;28;20039;-75
2021/10/04 10:02:54;;;;;;;10.32;2.92;;;17.30;99.90;;;;;;4112675;28;20121;-76
2021/10/04 10:04:55;;;;;;;9.50;2.67;;;17.40;99.90;;;;;;4124110;28;20062;-76
2021/10/04 10:06:56;;;;;;;7.22;2.70;;;17.50;99.90;;;;;;4111140;28;20055;-76
2021/10/04 10:08:58;;;;;;;6.70;2.58;;;17.50;99.90;;;;;;4110662;28;20061;-76
2021/10/04 10:11:04;;;;;;;4.47;2.25;;;17.50;99.90;;;;;;4111718;28;20054;-76
2021/10/04 10:13:08;;;;;;;8.60;2.92;;;17.60;99.90;;;;;;4110944;28;20035;-76
2021/10/04 10:15:15;;;;;;;9.43;2.53;;;18.00;99.90;;;;;;4106378;28;20058;-76
2021/10/04 10:17:23;;;;;;;9.27;2.55;;;18.20;99.90;;;;;;4124568;28;20111;-76
2021/10/04 10:19:30;;;;;;;8.07;2.33;;;18.30;99.90;;;;;;4122379;28;20470;-76
2021/10/04 10:21:33;;;;;;;6.45;2.83;;;18.40;99.90;;;;;;4111085;28;20074;-76
2021/10/04 10:23:53;;;;;;;;;;;18.30;99.90;;;;;;4113109;28;20069;-77
2021/10/04 10:25:53;;;;;;;7.13;1.92;;;18.30;99.90;;;;;;4097676;28;19953;-76
2021/10/04 10:27:54;;;;;;;10.05;3.42;;;18.30;99.90;;;;;;4126866;28;20547;-76
2021/10/04 10:30:16;;;;;;;3.47;2.30;;;18.50;99.90;;;;;;4109733;28;20422;-77
2021/10/04 10:32:20;;;;;;;9.75;2.63;;;19.10;99.90;;;;;;4095586;28;20411;-76
2021/10/04 10:34:29;;;;;;;;;;;19.20;99.90;;;;;;4114566;28;20069;-75
2021/10/04 10:37:02;;;;;;;5.22;2.05;;;19.30;99.90;;;;;;4112099;28;19914;-76